createdAt,value
2023-03-29T00:00:20.564Z,142.97
2023-03-29T00:01:35.210Z,138.08
2023-03-29T00:02:21.593Z,138.21
2023-03-29T00:03:20.633Z,138.16
2023-03-29T00:04:20.615Z,138.25
2023-03-29T00:05:20.553Z,133.36
2023-03-29T00:06:20.534Z,138.63
2023-03-29T00:07:20.522Z,138.43
2023-03-29T00:08:20.509Z,136.23
2023-03-29T00:09:20.487Z,145.05
2023-03-29T00:10:20.473Z,143.34
2023-03-29T00:11:20.489Z,140.65
2023-03-29T00:12:20.478Z,143.31
2023-03-29T00:13:20.522Z,142.89
2023-03-29T00:14:20.527Z,131.94
2023-03-29T00:15:20.586Z,143.33
2023-03-29T00:16:20.706Z,142.43
2023-03-29T00:17:20.679Z,143.05
2023-03-29T00:18:20.691Z,138.73
2023-03-29T00:19:20.747Z,137.96
2023-03-29T00:20:20.758Z,137.55
2023-03-29T00:21:20.827Z,135.82
2023-03-29T00:22:20.865Z,134.90
2023-03-29T00:23:20.941Z,132.89
2023-03-29T00:24:21.069Z,129.63
2023-03-29T00:25:21.035Z,127.48
2023-03-29T00:26:21.040Z,130.39
2023-03-29T00:27:21.074Z,128.66
2023-03-29T00:28:21.122Z,129.94
2023-03-29T00:29:21.163Z,132.38
2023-03-29T00:30:21.197Z,128.25
2023-03-29T00:31:21.205Z,123.99
2023-03-29T00:32:21.328Z,127.99
2023-03-29T00:33:21.296Z,126.36
2023-03-29T00:34:21.352Z,124.00
2023-03-29T00:35:21.437Z,125.68
2023-03-29T00:36:21.424Z,127.91
2023-03-29T00:37:21.458Z,123.95
2023-03-29T00:38:21.543Z,126.74
2023-03-29T00:39:21.608Z,130.18
2023-03-29T00:40:21.655Z,132.37
2023-03-29T00:41:21.670Z,127.29
2023-03-29T00:42:21.728Z,129.06
2023-03-29T00:43:21.787Z,131.84
2023-03-29T00:44:21.827Z,131.71
2023-03-29T00:45:21.846Z,137.83
2023-03-29T00:46:21.942Z,142.83
2023-03-29T00:47:21.954Z,148.10
2023-03-29T00:48:22.008Z,149.26
2023-03-29T00:49:21.998Z,146.70
2023-03-29T00:50:22.068Z,143.66
2023-03-29T00:51:22.100Z,149.33
2023-03-29T00:52:22.146Z,150.05
2023-03-29T00:53:22.260Z,144.52
2023-03-29T00:54:22.274Z,152.11
2023-03-29T00:55:22.337Z,150.93
2023-03-29T00:56:22.374Z,151.79
2023-03-29T00:57:22.531Z,152.53
2023-03-29T00:58:22.469Z,156.51
2023-03-29T00:59:22.512Z,160.37
2023-03-29T01:00:22.548Z,163.81
2023-03-29T01:01:22.761Z,166.63
2023-03-29T01:02:22.748Z,163.23
2023-03-29T01:03:22.842Z,163.78
2023-03-29T01:04:22.752Z,164.84
2023-03-29T01:05:22.804Z,168.42
2023-03-29T01:06:22.970Z,165.80
2023-03-29T01:07:22.906Z,173.00
2023-03-29T01:08:22.959Z,173.59
2023-03-29T01:09:22.953Z,170.91
2023-03-29T01:10:23.031Z,168.04
2023-03-29T01:11:23.060Z,168.57
2023-03-29T01:12:23.120Z,168.32
2023-03-29T01:13:23.177Z,170.56
2023-03-29T01:14:23.194Z,168.89
2023-03-29T01:15:23.259Z,166.19
2023-03-29T01:16:23.334Z,166.59
2023-03-29T01:17:23.353Z,169.75
2023-03-29T01:18:23.410Z,172.41
2023-03-29T01:19:23.481Z,166.04
2023-03-29T01:20:23.468Z,166.09
2023-03-29T01:21:23.604Z,161.92
2023-03-29T01:22:23.574Z,156.67
2023-03-29T01:23:23.637Z,161.14
2023-03-29T01:24:23.656Z,158.80
2023-03-29T01:25:23.751Z,154.92
2023-03-29T01:26:23.770Z,155.28
2023-03-29T01:27:23.790Z,157.98
2023-03-29T01:28:23.851Z,156.35
2023-03-29T01:29:23.894Z,159.10
2023-03-29T01:30:23.923Z,162.46
2023-03-29T01:31:24.027Z,159.97
2023-03-29T01:32:24.065Z,153.68
2023-03-29T01:33:24.052Z,152.08
2023-03-29T01:34:24.089Z,151.45
2023-03-29T01:35:24.109Z,146.92
2023-03-29T01:36:24.129Z,147.98
2023-03-29T01:37:24.167Z,154.30
2023-03-29T01:38:24.219Z,149.14
2023-03-29T01:39:24.248Z,151.20
2023-03-29T01:40:24.334Z,144.66
2023-03-29T01:41:24.321Z,146.71
2023-03-29T01:42:24.403Z,146.15
2023-03-29T01:43:24.402Z,145.88
2023-03-29T01:44:24.453Z,143.63
2023-03-29T01:45:24.478Z,138.89
2023-03-29T01:46:24.521Z,141.07
2023-03-29T01:47:24.562Z,138.40
2023-03-29T01:48:24.624Z,131.61
2023-03-29T01:49:24.654Z,139.53
2023-03-29T01:50:24.674Z,133.62
2023-03-29T01:51:24.705Z,131.46
2023-03-29T01:52:24.704Z,131.29
2023-03-29T01:53:24.764Z,130.72
2023-03-29T01:54:24.804Z,133.79
2023-03-29T01:55:24.854Z,130.66
2023-03-29T01:56:24.896Z,127.18
2023-03-29T01:57:25.099Z,128.01
2023-03-29T01:58:24.931Z,123.74
2023-03-29T01:59:25.015Z,119.28
2023-03-29T02:00:25.065Z,123.26
2023-03-29T02:01:25.121Z,119.13
2023-03-29T02:02:25.160Z,121.75
2023-03-29T02:03:25.228Z,120.27
2023-03-29T02:04:25.201Z,116.89
2023-03-29T02:05:25.243Z,114.78
2023-03-29T02:06:25.270Z,111.53
2023-03-29T02:07:25.345Z,113.08
2023-03-29T02:08:25.365Z,113.40
2023-03-29T02:09:25.450Z,112.25
2023-03-29T02:10:25.427Z,113.92
2023-03-29T02:11:25.488Z,118.96
2023-03-29T02:12:25.515Z,120.24
2023-03-29T02:13:25.529Z,125.52
2023-03-29T02:14:25.566Z,127.90
2023-03-29T02:15:25.679Z,130.10
2023-03-29T02:16:25.668Z,136.51
2023-03-29T02:17:25.720Z,135.37
2023-03-29T02:18:25.745Z,133.48
2023-03-29T02:19:25.814Z,127.29
2023-03-29T02:20:25.851Z,125.63
2023-03-29T02:21:25.872Z,120.20
2023-03-29T02:22:25.942Z,123.78
2023-03-29T02:23:25.966Z,118.80
2023-03-29T02:24:25.996Z,119.56
2023-03-29T02:25:26.147Z,116.20
2023-03-29T02:26:26.102Z,114.76
2023-03-29T02:27:26.154Z,118.88
2023-03-29T02:28:26.184Z,122.20
2023-03-29T02:29:26.168Z,121.63
2023-03-29T02:30:26.209Z,122.65
2023-03-29T02:31:26.255Z,118.32
2023-03-29T02:32:26.290Z,119.01
2023-03-29T02:33:26.280Z,120.85
2023-03-29T02:34:26.307Z,119.45
2023-03-29T02:35:26.342Z,120.06
2023-03-29T02:36:26.344Z,115.69
2023-03-29T02:37:26.400Z,117.69
2023-03-29T02:38:26.423Z,116.70
2023-03-29T02:39:26.420Z,112.44
2023-03-29T02:40:26.480Z,115.98
2023-03-29T02:41:26.476Z,113.86
2023-03-29T02:42:26.540Z,114.85
2023-03-29T02:43:26.540Z,111.27
2023-03-29T02:44:26.552Z,114.09
2023-03-29T02:45:26.607Z,108.06
2023-03-29T02:46:26.711Z,104.75
2023-03-29T02:47:26.701Z,101.62
2023-03-29T02:48:26.699Z,104.31
2023-03-29T02:49:26.733Z,98.93
2023-03-29T02:50:26.789Z,102.05
2023-03-29T02:51:26.806Z,104.86
2023-03-29T02:52:26.820Z,108.59
2023-03-29T02:53:26.792Z,114.04
2023-03-29T02:54:26.830Z,111.41
2023-03-29T02:55:26.826Z,107.85
2023-03-29T02:56:26.852Z,110.51
2023-03-29T02:57:26.999Z,112.44
2023-03-29T02:58:26.920Z,113.53
2023-03-29T02:59:26.918Z,115.99
2023-03-29T03:00:26.941Z,115.53
2023-03-29T03:01:27.010Z,117.20
2023-03-29T03:02:27.004Z,116.96
2023-03-29T03:03:27.148Z,122.63
2023-03-29T03:04:27.061Z,118.71
2023-03-29T03:05:27.112Z,121.15
2023-03-29T03:06:27.139Z,127.00
2023-03-29T03:07:27.182Z,130.23
2023-03-29T03:08:27.237Z,134.40
2023-03-29T03:09:27.270Z,137.89
2023-03-29T03:10:27.301Z,142.29
2023-03-29T03:11:27.316Z,150.44
2023-03-29T03:12:27.341Z,153.21
2023-03-29T03:13:27.358Z,153.25
2023-03-29T03:14:27.388Z,151.27
2023-03-29T03:15:27.432Z,149.36
2023-03-29T03:16:27.527Z,148.75
2023-03-29T03:17:27.551Z,151.69
2023-03-29T03:18:27.519Z,154.33
2023-03-29T03:19:27.565Z,159.35
2023-03-29T03:20:27.621Z,161.70
2023-03-29T03:21:27.677Z,166.17
2023-03-29T03:22:27.675Z,166.28
2023-03-29T03:23:27.742Z,171.59
2023-03-29T03:24:27.792Z,176.24
2023-03-29T03:25:27.847Z,178.28
2023-03-29T03:26:27.876Z,179.89
2023-03-29T03:27:28.775Z,174.14
2023-03-29T03:28:27.976Z,183.55
2023-03-29T03:29:27.990Z,173.66
2023-03-29T03:30:28.011Z,176.49
2023-03-29T03:31:28.116Z,174.95
2023-03-29T03:32:28.144Z,178.38
2023-03-29T03:33:28.117Z,178.69
2023-03-29T03:34:28.152Z,183.58
2023-03-29T03:35:28.244Z,183.47
2023-03-29T03:36:28.223Z,184.59
2023-03-29T03:37:28.321Z,181.41
2023-03-29T03:38:28.339Z,184.02
2023-03-29T03:39:28.382Z,187.14
2023-03-29T03:40:28.503Z,163.89
2023-03-29T03:41:28.456Z,162.18
2023-03-29T03:42:28.494Z,135.99
2023-03-29T03:43:28.542Z,148.24
2023-03-29T03:44:28.592Z,159.67
2023-03-29T03:45:28.620Z,161.26
2023-03-29T03:46:29.731Z,167.09
2023-03-29T03:47:28.812Z,172.93
2023-03-29T03:48:28.745Z,172.90
2023-03-29T03:49:28.821Z,173.27
2023-03-29T03:50:28.825Z,175.62
2023-03-29T03:51:28.867Z,175.33
2023-03-29T03:52:28.882Z,173.64
2023-03-29T03:53:28.888Z,172.82
2023-03-29T03:54:28.944Z,179.89
2023-03-29T03:55:28.970Z,172.75
2023-03-29T03:56:29.039Z,174.07
2023-03-29T03:57:29.060Z,182.87
2023-03-29T03:58:29.103Z,177.56
2023-03-29T03:59:29.124Z,180.48
2023-03-29T04:00:29.187Z,184.50
2023-03-29T04:01:29.231Z,187.70
2023-03-29T04:02:29.312Z,185.60
2023-03-29T04:03:29.402Z,186.48
2023-03-29T04:04:29.375Z,183.62
2023-03-29T04:05:29.381Z,188.19
2023-03-29T04:06:29.404Z,184.61
2023-03-29T04:07:29.456Z,183.03
2023-03-29T04:08:29.526Z,182.81
2023-03-29T04:09:29.525Z,188.83
2023-03-29T04:10:29.620Z,190.25
2023-03-29T04:11:29.651Z,190.80
2023-03-29T04:12:29.643Z,195.35
2023-03-29T04:13:29.689Z,191.99
2023-03-29T04:14:29.744Z,197.25
2023-03-29T04:15:29.864Z,200.47
2023-03-29T04:16:29.864Z,216.34
2023-03-29T04:17:29.870Z,216.61
2023-03-29T04:18:29.996Z,213.41
2023-03-29T04:19:29.929Z,212.88
2023-03-29T04:20:29.967Z,212.55
2023-03-29T04:21:30.031Z,206.86
2023-03-29T04:22:30.055Z,214.08
2023-03-29T04:23:30.097Z,213.50
2023-03-29T04:24:30.161Z,222.58
2023-03-29T04:25:30.167Z,202.61
2023-03-29T04:26:30.206Z,181.42
2023-03-29T04:27:30.225Z,179.69
2023-03-29T04:28:30.268Z,192.95
2023-03-29T04:29:30.332Z,201.95
2023-03-29T04:30:30.343Z,212.10
2023-03-29T04:31:30.397Z,218.81
2023-03-29T04:32:30.459Z,223.08
2023-03-29T04:33:30.462Z,226.49
2023-03-29T04:34:30.492Z,232.91
2023-03-29T04:35:30.581Z,236.51
2023-03-29T04:36:30.563Z,238.26
2023-03-29T04:37:30.572Z,225.73
2023-03-29T04:38:30.611Z,154.45
2023-03-29T04:39:30.656Z,102.47
2023-03-29T04:40:30.744Z,122.79
2023-03-29T04:41:30.767Z,158.24
2023-03-29T04:42:30.794Z,190.73
2023-03-29T04:43:30.784Z,205.90
2023-03-29T04:44:30.844Z,212.12
2023-03-29T04:45:30.910Z,225.83
2023-03-29T04:46:30.956Z,222.42
2023-03-29T04:47:31.030Z,135.41
2023-03-29T04:48:31.012Z,71.40
2023-03-29T04:49:31.076Z,45.59
2023-03-29T04:50:31.099Z,65.51
2023-03-29T04:51:31.166Z,126.26
2023-03-29T04:52:31.170Z,161.98
2023-03-29T04:53:31.186Z,189.64
2023-03-29T04:54:31.250Z,208.86
2023-03-29T04:55:31.293Z,219.97
2023-03-29T04:56:31.293Z,229.15
2023-03-29T04:57:31.380Z,235.36
2023-03-29T04:58:32.568Z,239.22
2023-03-29T04:59:31.458Z,238.50
2023-03-29T05:00:31.453Z,239.60
2023-03-29T05:01:38.513Z,242.92
2023-03-29T05:02:31.533Z,243.20
2023-03-29T05:03:31.472Z,243.98
2023-03-29T05:04:31.561Z,244.54
2023-03-29T05:05:31.465Z,248.40
2023-03-29T05:06:31.429Z,269.44
2023-03-29T05:07:31.424Z,249.91
2023-03-29T05:08:31.405Z,249.15
2023-03-29T05:09:33.044Z,248.09
2023-03-29T05:10:31.385Z,247.09
2023-03-29T05:11:31.391Z,250.00
2023-03-29T05:12:31.363Z,249.83
2023-03-29T05:13:31.357Z,248.59
2023-03-29T05:14:31.347Z,240.43
2023-03-29T05:15:31.326Z,235.35
2023-03-29T05:16:31.377Z,235.22
2023-03-29T05:17:31.306Z,250.37
2023-03-29T05:18:31.283Z,250.00
2023-03-29T05:19:31.246Z,246.51
2023-03-29T05:20:31.261Z,247.74
2023-03-29T05:21:31.265Z,246.82
2023-03-29T05:22:31.267Z,245.89
2023-03-29T05:23:31.253Z,244.84
2023-03-29T05:24:31.211Z,243.72
2023-03-29T05:25:31.197Z,250.00
2023-03-29T05:26:31.201Z,251.63
2023-03-29T05:27:31.214Z,256.38
2023-03-29T05:28:31.210Z,260.38
2023-03-29T05:29:31.171Z,259.12
2023-03-29T05:30:31.152Z,251.17
2023-03-29T05:31:31.232Z,249.11
2023-03-29T05:32:31.159Z,248.79
2023-03-29T05:33:31.110Z,243.10
2023-03-29T05:34:31.138Z,239.31
2023-03-29T05:35:31.126Z,235.68
2023-03-29T05:36:31.094Z,233.06
2023-03-29T05:37:31.073Z,230.01
2023-03-29T05:38:31.590Z,230.67
2023-03-29T05:39:31.378Z,230.56
2023-03-29T05:40:31.079Z,225.86
2023-03-29T05:41:31.065Z,223.81
2023-03-29T05:42:31.022Z,217.12
2023-03-29T05:43:31.046Z,214.36
2023-03-29T05:44:31.432Z,208.82
2023-03-29T05:45:31.105Z,204.61
2023-03-29T05:46:38.062Z,202.49
2023-03-29T05:47:31.024Z,203.03
2023-03-29T05:48:31.003Z,205.51
2023-03-29T05:49:31.023Z,210.22
2023-03-29T05:50:31.021Z,218.15
2023-03-29T05:51:30.961Z,229.07
2023-03-29T05:52:30.988Z,233.71
2023-03-29T05:53:30.974Z,233.01
2023-03-29T05:54:30.955Z,237.09
2023-03-29T05:55:30.953Z,238.60
2023-03-29T05:56:30.929Z,238.79
2023-03-29T05:57:30.898Z,239.89
2023-03-29T05:58:30.906Z,239.35
2023-03-29T05:59:30.890Z,240.20
2023-03-29T06:00:30.888Z,241.31
2023-03-29T06:01:30.844Z,242.82
2023-03-29T06:02:30.923Z,243.44
2023-03-29T06:03:30.900Z,242.32
2023-03-29T06:04:31.005Z,242.07
2023-03-29T06:05:30.776Z,243.17
2023-03-29T06:06:30.745Z,242.91
2023-03-29T06:07:30.736Z,243.38
2023-03-29T06:08:30.683Z,243.04
2023-03-29T06:09:30.670Z,242.95
2023-03-29T06:10:30.666Z,241.62
2023-03-29T06:11:30.681Z,242.78
2023-03-29T06:12:30.617Z,240.98
2023-03-29T06:13:30.721Z,242.14
2023-03-29T06:14:31.877Z,242.31
2023-03-29T06:15:31.457Z,243.25
2023-03-29T06:16:30.586Z,242.08
2023-03-29T06:17:30.785Z,241.32
2023-03-29T06:18:30.610Z,240.55
2023-03-29T06:19:30.922Z,241.38
2023-03-29T06:20:30.638Z,240.10
2023-03-29T06:21:30.726Z,239.77
2023-03-29T06:22:30.632Z,239.03
2023-03-29T06:23:30.960Z,239.37
2023-03-29T06:24:30.956Z,238.55
2023-03-29T06:25:30.707Z,235.97
2023-03-29T06:26:30.709Z,235.78
2023-03-29T06:27:30.729Z,236.07
2023-03-29T06:28:30.726Z,233.81
2023-03-29T06:29:30.796Z,235.29
2023-03-29T06:30:30.700Z,235.33
2023-03-29T06:31:30.771Z,236.86
2023-03-29T06:32:30.748Z,235.59
2023-03-29T06:33:30.787Z,234.56
2023-03-29T06:34:30.809Z,235.79
2023-03-29T06:35:30.781Z,235.98
2023-03-29T06:36:30.823Z,237.00
2023-03-29T06:37:30.826Z,238.09
2023-03-29T06:38:30.853Z,243.09
2023-03-29T06:39:30.847Z,244.72
2023-03-29T06:40:30.854Z,250.44
2023-03-29T06:41:30.898Z,247.11
2023-03-29T06:42:30.914Z,239.84
2023-03-29T06:43:30.974Z,212.77
2023-03-29T06:44:31.431Z,186.62
2023-03-29T06:45:31.090Z,158.84
2023-03-29T06:46:31.043Z,133.56
2023-03-29T06:47:31.161Z,115.21
2023-03-29T06:48:31.029Z,100.74
2023-03-29T06:49:31.063Z,81.90
2023-03-29T06:50:31.104Z,73.44
2023-03-29T06:51:31.132Z,66.35
2023-03-29T06:52:31.170Z,58.03
2023-03-29T06:53:31.254Z,59.48
2023-03-29T06:54:31.508Z,55.63
2023-03-29T06:55:31.368Z,52.77
2023-03-29T06:56:31.402Z,55.94
2023-03-29T06:57:31.706Z,54.82
2023-03-29T06:58:32.852Z,71.79
2023-03-29T06:59:31.948Z,77.09
2023-03-29T07:00:31.576Z,70.74
2023-03-29T07:01:31.674Z,71.58
2023-03-29T07:02:31.857Z,72.49
2023-03-29T07:03:31.763Z,85.84
2023-03-29T07:04:32.029Z,96.94
2023-03-29T07:05:31.886Z,110.24
2023-03-29T07:06:31.914Z,127.07
2023-03-29T07:07:31.997Z,139.83
2023-03-29T07:08:32.042Z,159.47
2023-03-29T07:09:32.231Z,175.24
2023-03-29T07:10:32.173Z,166.30
2023-03-29T07:11:32.129Z,171.60
2023-03-29T07:12:32.171Z,195.04
2023-03-29T07:13:32.193Z,202.98
2023-03-29T07:14:32.437Z,182.16
2023-03-29T07:15:32.241Z,173.81
2023-03-29T07:16:32.349Z,178.78
2023-03-29T07:17:32.380Z,168.33
2023-03-29T07:18:32.370Z,166.78
2023-03-29T07:19:32.401Z,163.23
2023-03-29T07:20:32.453Z,161.19
2023-03-29T07:21:32.465Z,163.94
2023-03-29T07:22:32.474Z,163.14
2023-03-29T07:23:32.482Z,146.21
2023-03-29T07:24:32.612Z,148.40
2023-03-29T07:25:32.476Z,164.58
2023-03-29T07:26:32.501Z,187.05
2023-03-29T07:27:32.500Z,182.91
2023-03-29T07:28:32.509Z,168.73
2023-03-29T07:29:32.478Z,171.91
2023-03-29T07:30:32.977Z,180.02
2023-03-29T07:31:32.470Z,171.69
2023-03-29T07:32:32.674Z,178.45
2023-03-29T07:33:32.605Z,199.44
2023-03-29T07:34:32.470Z,180.40
2023-03-29T07:35:32.479Z,168.44
2023-03-29T07:36:32.489Z,204.12
2023-03-29T07:37:32.500Z,222.40
2023-03-29T07:38:32.548Z,229.86
2023-03-29T07:39:32.473Z,236.42
2023-03-29T07:40:32.482Z,238.56
2023-03-29T07:41:32.463Z,239.62
2023-03-29T07:42:32.478Z,240.42
2023-03-29T07:43:32.467Z,245.65
2023-03-29T07:44:32.461Z,224.25
2023-03-29T07:45:33.478Z,215.24
2023-03-29T07:46:32.475Z,213.37
2023-03-29T07:47:32.489Z,208.62
2023-03-29T07:48:32.447Z,178.25
2023-03-29T07:49:32.444Z,148.01
2023-03-29T07:50:32.534Z,116.88
2023-03-29T07:51:32.461Z,97.68
2023-03-29T07:52:32.430Z,107.26
2023-03-29T07:53:32.441Z,101.95
2023-03-29T07:54:32.425Z,102.62
2023-03-29T07:55:32.483Z,102.23
2023-03-29T07:56:32.497Z,104.93
2023-03-29T07:57:32.588Z,116.60
2023-03-29T07:58:32.516Z,94.66
2023-03-29T07:59:32.565Z,72.13
2023-03-29T08:00:32.645Z,75.87
2023-03-29T08:01:32.669Z,66.14
2023-03-29T08:02:32.672Z,72.90
2023-03-29T08:03:32.743Z,88.57
2023-03-29T08:04:32.779Z,98.74
2023-03-29T08:05:40.709Z,107.57
2023-03-29T08:06:34.279Z,107.90
2023-03-29T08:07:32.708Z,109.55
2023-03-29T08:08:32.668Z,112.48
2023-03-29T08:09:32.681Z,113.38
2023-03-29T08:10:32.718Z,111.66
2023-03-29T08:11:32.702Z,97.72
2023-03-29T08:12:32.712Z,84.42
2023-03-29T08:13:32.719Z,90.28
2023-03-29T08:14:32.618Z,85.82
2023-03-29T08:15:32.987Z,80.60
2023-03-29T08:16:32.647Z,94.55
2023-03-29T08:17:33.582Z,88.46
2023-03-29T08:18:34.751Z,85.44
2023-03-29T08:19:32.631Z,92.31
2023-03-29T08:20:32.617Z,97.82
2023-03-29T08:21:32.574Z,120.31
2023-03-29T08:22:32.580Z,101.76
2023-03-29T08:23:32.549Z,105.86
2023-03-29T08:24:32.603Z,90.73
2023-03-29T08:25:32.973Z,77.14
2023-03-29T08:26:32.519Z,69.05
2023-03-29T08:27:32.568Z,48.62
2023-03-29T08:28:32.581Z,46.84
2023-03-29T08:29:32.596Z,38.21
2023-03-29T08:30:32.629Z,60.10
2023-03-29T08:31:32.680Z,112.84
2023-03-29T08:32:32.653Z,159.18
2023-03-29T08:33:32.651Z,180.81
2023-03-29T08:34:32.654Z,188.89
2023-03-29T08:35:32.691Z,155.87
2023-03-29T08:36:32.615Z,132.17
2023-03-29T08:37:32.645Z,92.50
2023-03-29T08:38:32.649Z,104.61
2023-03-29T08:39:32.651Z,79.99
2023-03-29T08:40:32.625Z,71.54
2023-03-29T08:41:33.097Z,76.61
2023-03-29T08:42:32.650Z,67.34
2023-03-29T08:43:32.688Z,78.84
2023-03-29T08:44:32.655Z,86.91
2023-03-29T08:45:32.697Z,83.53
2023-03-29T08:46:35.316Z,76.89
2023-03-29T08:47:32.724Z,87.84
2023-03-29T08:48:32.675Z,141.55
2023-03-29T08:49:32.667Z,153.86
2023-03-29T08:50:32.660Z,163.84
2023-03-29T08:51:32.625Z,160.51
2023-03-29T08:52:32.600Z,107.68
2023-03-29T08:53:32.580Z,99.15
2023-03-29T08:54:32.602Z,63.16
2023-03-29T08:55:32.983Z,45.15
2023-03-29T08:56:34.086Z,47.58
2023-03-29T08:57:32.621Z,44.58
2023-03-29T08:58:32.549Z,38.20
2023-03-29T08:59:32.504Z,21.63
2023-03-29T09:00:32.513Z,24.65
2023-03-29T09:01:32.593Z,33.05
2023-03-29T09:02:32.605Z,30.10
2023-03-29T09:03:32.630Z,27.08
2023-03-29T09:04:32.479Z,25.00
2023-03-29T09:05:32.522Z,23.70
2023-03-29T09:06:32.464Z,31.67
2023-03-29T09:07:32.466Z,53.21
2023-03-29T09:08:32.457Z,63.90
2023-03-29T09:09:32.421Z,82.52
2023-03-29T09:10:32.503Z,82.85
2023-03-29T09:11:32.433Z,60.34
2023-03-29T09:12:32.415Z,45.16
2023-03-29T09:13:32.426Z,42.40
2023-03-29T09:14:32.380Z,44.83
2023-03-29T09:15:32.427Z,54.91
2023-03-29T09:16:32.410Z,52.96
2023-03-29T09:17:32.528Z,67.73
2023-03-29T09:18:32.366Z,122.56
2023-03-29T09:19:32.339Z,152.56
2023-03-29T09:20:32.361Z,164.35
2023-03-29T09:21:32.324Z,172.40
2023-03-29T09:22:32.464Z,173.02
2023-03-29T09:23:32.347Z,176.99
2023-03-29T09:24:32.351Z,177.73
2023-03-29T09:25:36.237Z,179.56
2023-03-29T09:26:33.416Z,179.63
2023-03-29T09:27:32.416Z,179.91
2023-03-29T09:28:32.328Z,180.71
2023-03-29T09:29:32.357Z,181.78
2023-03-29T09:30:32.489Z,186.03
2023-03-29T09:31:32.353Z,187.55
2023-03-29T09:32:32.361Z,187.94
2023-03-29T09:33:32.261Z,190.59
2023-03-29T09:34:32.252Z,200.37
2023-03-29T09:35:32.288Z,197.31
2023-03-29T09:36:32.261Z,218.94
2023-03-29T09:37:32.261Z,223.98
2023-03-29T09:38:32.817Z,226.59
2023-03-29T09:39:32.166Z,214.85
2023-03-29T09:40:32.190Z,215.46
2023-03-29T09:41:32.188Z,197.51
2023-03-29T09:42:32.173Z,189.43
2023-03-29T09:43:32.156Z,192.54
2023-03-29T09:44:32.155Z,190.72
2023-03-29T09:45:32.531Z,193.71
2023-03-29T09:46:32.253Z,195.33
2023-03-29T09:47:32.332Z,196.59
2023-03-29T09:48:32.347Z,203.18
2023-03-29T09:49:32.389Z,207.31
2023-03-29T09:50:32.490Z,201.76
2023-03-29T09:51:32.401Z,188.84
2023-03-29T09:52:32.498Z,193.04
2023-03-29T09:53:32.514Z,177.50
2023-03-29T09:54:32.530Z,170.99
2023-03-29T09:55:32.703Z,176.28
2023-03-29T09:56:32.629Z,151.94
2023-03-29T09:57:32.653Z,138.19
2023-03-29T09:58:32.760Z,139.02
2023-03-29T09:59:32.797Z,147.46
2023-03-29T10:00:32.764Z,130.93
2023-03-29T10:01:33.556Z,115.49
2023-03-29T10:02:32.992Z,108.70
2023-03-29T10:03:32.953Z,109.49
2023-03-29T10:04:33.044Z,105.29
2023-03-29T10:05:33.979Z,105.44
2023-03-29T10:06:32.919Z,105.88
2023-03-29T10:07:32.879Z,87.59
2023-03-29T10:08:33.596Z,57.28
2023-03-29T10:09:32.936Z,46.82
2023-03-29T10:10:33.087Z,35.05
2023-03-29T10:11:32.811Z,50.42
2023-03-29T10:12:32.806Z,63.35
2023-03-29T10:13:32.789Z,50.58
2023-03-29T10:14:32.827Z,32.73
2023-03-29T10:15:32.880Z,56.84
2023-03-29T10:16:33.017Z,24.26
2023-03-29T10:17:33.015Z,14.79
2023-03-29T10:18:33.002Z,33.64
2023-03-29T10:19:32.996Z,17.95
2023-03-29T10:20:33.000Z,21.61
2023-03-29T10:21:33.085Z,33.52
2023-03-29T10:22:33.076Z,48.09
2023-03-29T10:23:33.205Z,73.33
2023-03-29T10:24:33.138Z,76.97
2023-03-29T10:25:33.216Z,75.25
2023-03-29T10:26:33.301Z,67.57
2023-03-29T10:27:33.342Z,67.89
2023-03-29T10:28:33.334Z,73.67
2023-03-29T10:29:33.404Z,76.27
2023-03-29T10:30:33.398Z,73.37
2023-03-29T10:31:33.518Z,78.53
2023-03-29T10:32:33.535Z,58.49
2023-03-29T10:33:33.465Z,54.87
2023-03-29T10:34:33.528Z,56.98
2023-03-29T10:35:33.572Z,63.43
2023-03-29T10:36:33.539Z,41.38
2023-03-29T10:37:33.593Z,8.73
2023-03-29T10:38:33.651Z,15.35
2023-03-29T10:39:33.729Z,23.41
2023-03-29T10:40:33.782Z,19.94
2023-03-29T10:41:33.789Z,25.81
2023-03-29T10:42:33.842Z,32.86
2023-03-29T10:43:33.885Z,26.32
2023-03-29T10:44:33.891Z,28.30
2023-03-29T10:45:34.037Z,33.32
2023-03-29T10:46:34.012Z,22.05
2023-03-29T10:47:34.201Z,30.38
2023-03-29T10:48:34.075Z,39.46
2023-03-29T10:49:34.126Z,35.01
2023-03-29T10:50:34.199Z,24.03
2023-03-29T10:51:34.244Z,31.06
2023-03-29T10:52:34.281Z,34.21
2023-03-29T10:53:34.325Z,44.93
2023-03-29T10:54:34.367Z,40.94
2023-03-29T10:55:34.444Z,47.59
2023-03-29T10:56:34.477Z,53.27
2023-03-29T10:57:34.598Z,62.71
2023-03-29T10:58:34.553Z,69.67
2023-03-29T10:59:34.607Z,46.73
2023-03-29T11:00:34.690Z,44.31
2023-03-29T11:01:34.711Z,32.08
2023-03-29T11:02:34.824Z,43.93
2023-03-29T11:03:34.864Z,55.15
2023-03-29T11:04:34.812Z,65.50
2023-03-29T11:05:34.830Z,42.39
2023-03-29T11:06:35.131Z,45.74
2023-03-29T11:07:34.934Z,44.10
2023-03-29T11:08:34.968Z,53.45
2023-03-29T11:09:35.059Z,58.19
2023-03-29T11:10:35.149Z,75.41
2023-03-29T11:11:35.146Z,114.79
2023-03-29T11:12:35.161Z,143.22
2023-03-29T11:13:35.206Z,156.33
2023-03-29T11:14:35.256Z,163.10
2023-03-29T11:15:35.406Z,160.57
2023-03-29T11:16:35.343Z,157.45
2023-03-29T11:17:35.438Z,152.35
2023-03-29T11:18:35.486Z,136.71
2023-03-29T11:19:35.462Z,118.14
2023-03-29T11:20:35.548Z,110.80
2023-03-29T11:21:36.067Z,105.90
2023-03-29T11:22:35.622Z,104.39
2023-03-29T11:23:35.613Z,103.12
2023-03-29T11:24:35.647Z,87.46
2023-03-29T11:25:35.719Z,124.71
2023-03-29T11:26:36.089Z,157.17
2023-03-29T11:27:35.787Z,170.45
2023-03-29T11:28:35.781Z,180.44
2023-03-29T11:29:35.842Z,189.02
2023-03-29T11:30:35.910Z,196.84
2023-03-29T11:31:38.337Z,203.14
2023-03-29T11:32:35.914Z,209.12
2023-03-29T11:33:35.855Z,213.25
2023-03-29T11:34:37.148Z,213.16
2023-03-29T11:35:35.843Z,214.48
2023-03-29T11:36:36.039Z,216.43
2023-03-29T11:37:35.718Z,217.83
2023-03-29T11:38:35.718Z,219.17
2023-03-29T11:39:35.698Z,222.51
2023-03-29T11:40:35.717Z,222.14
2023-03-29T11:41:36.079Z,223.72
2023-03-29T11:42:35.657Z,226.64
2023-03-29T11:43:35.728Z,228.89
2023-03-29T11:44:35.549Z,230.63
2023-03-29T11:45:35.589Z,231.95
2023-03-29T11:46:35.536Z,233.63
2023-03-29T11:47:35.576Z,234.70
2023-03-29T11:48:35.480Z,234.24
2023-03-29T11:49:35.453Z,236.11
2023-03-29T11:50:36.843Z,238.12
2023-03-29T11:51:35.433Z,240.18
2023-03-29T11:52:35.383Z,240.29
2023-03-29T11:53:35.337Z,240.71
2023-03-29T11:54:35.348Z,241.88
2023-03-29T11:55:35.311Z,243.42
2023-03-29T11:56:35.287Z,243.35
2023-03-29T11:57:35.262Z,244.10
2023-03-29T11:58:38.285Z,244.80
2023-03-29T11:59:35.219Z,245.00
2023-03-29T12:00:35.203Z,245.60
2023-03-29T12:01:35.148Z,246.75
2023-03-29T12:02:35.348Z,247.04
2023-03-29T12:03:35.227Z,245.83
2023-03-29T12:04:35.148Z,246.29
2023-03-29T12:05:35.076Z,246.05
2023-03-29T12:06:35.060Z,246.46
2023-03-29T12:07:35.020Z,246.46
2023-03-29T12:08:35.001Z,246.90
2023-03-29T12:09:34.968Z,248.98
2023-03-29T12:10:34.949Z,248.91
2023-03-29T12:11:34.930Z,248.57
2023-03-29T12:12:34.892Z,248.24
2023-03-29T12:13:34.908Z,248.00
2023-03-29T12:14:34.866Z,247.90
2023-03-29T12:15:34.820Z,247.91
2023-03-29T12:16:34.882Z,248.90
2023-03-29T12:17:34.783Z,248.59
2023-03-29T12:18:34.738Z,249.34
2023-03-29T12:19:36.749Z,249.67
2023-03-29T12:20:35.728Z,249.72
2023-03-29T12:21:34.716Z,249.79
2023-03-29T12:22:34.626Z,249.55
2023-03-29T12:23:34.644Z,250.11
2023-03-29T12:24:34.607Z,249.67
2023-03-29T12:25:34.582Z,247.62
2023-03-29T12:26:34.539Z,249.78
2023-03-29T12:27:34.501Z,249.45
2023-03-29T12:28:34.505Z,248.34
2023-03-29T12:29:34.431Z,249.80
2023-03-29T12:30:34.564Z,248.92
2023-03-29T12:31:34.421Z,248.15
2023-03-29T12:32:34.444Z,250.00
2023-03-29T12:33:34.364Z,249.18